sensor_id;sensor_type;location;lat;lon;timestamp;pressure;altitude;pressure_sealevel;temperature;humidity
5053;BME280;2545;50.892;5.740;2024-03-25T00:02:07;56359.16;;;-142.21;100.00
5053;BME280;2545;50.892;5.740;2024-03-25T00:04:32;56304.25;;;-142.21;100.00
5053;BME280;2545;50.892;5.740;2024-03-25T00:06:58;56312.09;;;-142.21;100.00
5053;BME280;2545;50.892;5.740;2024-03-25T00:09:24;56329.75;;;-142.21;100.00
5053;BME280;2545;50.892;5.740;2024-03-25T00:11:49;56351.31;;;-142.21;100.00
5053;BME280;2545;50.892;5.740;2024-03-25T00:14:19;56300.34;;;-142.21;100.00
5053;BME280;2545;50.892;5.740;2024-03-25T00:16:44;56349.38;;;-142.21;100.00
5053;BME280;2545;50.892;5.740;2024-03-25T00:19:09;56316.03;;;-142.21;100.00
5053;BME280;2545;50.892;5.740;2024-03-25T00:21:35;56351.31;;;-142.21;100.00
5053;BME280;2545;50.892;5.740;2024-03-25T00:24:00;56357.22;;;-142.21;100.00
5053;BME280;2545;50.892;5.740;2024-03-25T00:26:26;56319.94;;;-142.21;100.00
5053;BME280;2545;50.892;5.740;2024-03-25T00:28:51;56359.16;;;-142.21;100.00
5053;BME280;2545;50.892;5.740;2024-03-25T00:31:16;56335.63;;;-142.21;100.00
5053;BME280;2545;50.892;5.740;2024-03-25T00:33:42;56306.22;;;-142.21;100.00
5053;BME280;2545;50.892;5.740;2024-03-25T00:36:07;56319.94;;;-142.21;100.00
5053;BME280;2545;50.892;5.740;2024-03-25T00:38:32;56329.75;;;-142.21;100.00
5053;BME280;2545;50.892;5.740;2024-03-25T00:40:58;56325.84;;;-142.21;100.00
5053;BME280;2545;50.892;5.740;2024-03-25T00:43:24;56331.72;;;-142.21;100.00
5053;BME280;2545;50.892;5.740;2024-03-25T00:45:49;56298.38;;;-142.21;100.00
5053;BME280;2545;50.892;5.740;2024-03-25T00:48:14;56345.44;;;-142.21;100.00
5053;BME280;2545;50.892;5.740;2024-03-25T00:50:40;56345.44;;;-142.21;100.00
5053;BME280;2545;50.892;5.740;2024-03-25T00:53:05;56361.13;;;-142.21;100.00
5053;BME280;2545;50.892;5.740;2024-03-25T00:55:31;56327.78;;;-142.21;100.00
5053;BME280;2545;50.892;5.740;2024-03-25T00:57:56;56292.50;;;-142.21;100.00
5053;BME280;2545;50.892;5.740;2024-03-25T01:00:21;56335.63;;;-142.21;100.00
5053;BME280;2545;50.892;5.740;2024-03-25T01:02:46;56365.06;;;-142.21;100.00
5053;BME280;2545;50.892;5.740;2024-03-25T01:05:12;56335.63;;;-142.21;100.00
5053;BME280;2545;50.892;5.740;2024-03-25T01:07:37;56355.25;;;-142.21;100.00
5053;BME280;2545;50.892;5.740;2024-03-25T01:10:03;56343.47;;;-142.21;100.00
5053;BME280;2545;50.892;5.740;2024-03-25T01:12:29;56294.47;;;-142.21;100.00
5053;BME280;2545;50.892;5.740;2024-03-25T01:14:55;56345.44;;;-142.21;100.00
5053;BME280;2545;50.892;5.740;2024-03-25T01:17:20;56312.09;;;-142.21;100.00
5053;BME280;2545;50.892;5.740;2024-03-25T01:19:45;56327.78;;;-142.21;100.00
5053;BME280;2545;50.892;5.740;2024-03-25T01:22:10;56337.59;;;-142.21;100.00
5053;BME280;2545;50.892;5.740;2024-03-25T01:24:36;56316.03;;;-142.21;100.00
5053;BME280;2545;50.892;5.740;2024-03-25T01:27:01;56353.28;;;-142.21;100.00
5053;BME280;2545;50.892;5.740;2024-03-25T01:29:27;56357.22;;;-142.21;100.00
5053;BME280;2545;50.892;5.740;2024-03-25T01:31:52;56370.94;;;-142.21;100.00
5053;BME280;2545;50.892;5.740;2024-03-25T01:34:18;56343.47;;;-142.21;100.00
5053;BME280;2545;50.892;5.740;2024-03-25T01:36:43;56357.22;;;-142.21;100.00
5053;BME280;2545;50.892;5.740;2024-03-25T01:39:09;56370.94;;;-142.21;100.00
5053;BME280;2545;50.892;5.740;2024-03-25T01:41:37;56292.50;;;-142.21;100.00
5053;BME280;2545;50.892;5.740;2024-03-25T01:44:02;56298.38;;;-142.21;100.00
5053;BME280;2545;50.892;5.740;2024-03-25T01:46:29;56310.13;;;-142.21;100.00
5053;BME280;2545;50.892;5.740;2024-03-25T01:48:54;56314.06;;;-142.21;100.00
5053;BME280;2545;50.892;5.740;2024-03-25T01:51:23;56312.09;;;-142.21;100.00
5053;BME280;2545;50.892;5.740;2024-03-25T01:53:49;56343.47;;;-142.21;100.00
5053;BME280;2545;50.892;5.740;2024-03-25T01:56:15;56317.97;;;-142.21;100.00
5053;BME280;2545;50.892;5.740;2024-03-25T01:58:42;56321.91;;;-142.21;100.00
5053;BME280;2545;50.892;5.740;2024-03-25T02:01:08;56349.38;;;-142.21;100.00
5053;BME280;2545;50.892;5.740;2024-03-25T02:03:39;56343.47;;;-142.21;100.00
5053;BME280;2545;50.892;5.740;2024-03-25T02:06:10;56345.44;;;-142.21;100.00
5053;BME280;2545;50.892;5.740;2024-03-25T02:08:38;56370.94;;;-142.21;100.00
5053;BME280;2545;50.892;5.740;2024-03-25T02:11:07;56319.94;;;-142.21;100.00
5053;BME280;2545;50.892;5.740;2024-03-25T02:13:35;56329.75;;;-142.21;100.00
5053;BME280;2545;50.892;5.740;2024-03-25T02:16:01;56357.22;;;-142.21;100.00
5053;BME280;2545;50.892;5.740;2024-03-25T02:18:28;56304.25;;;-142.21;100.00
5053;BME280;2545;50.892;5.740;2024-03-25T02:20:53;56361.13;;;-142.21;100.00
5053;BME280;2545;50.892;5.740;2024-03-25T02:23:19;56349.38;;;-142.21;100.00
5053;BME280;2545;50.892;5.740;2024-03-25T02:25:49;56349.38;;;-142.21;100.00
5053;BME280;2545;50.892;5.740;2024-03-25T02:28:15;56319.94;;;-142.21;100.00
5053;BME280;2545;50.892;5.740;2024-03-25T02:30:40;56325.84;;;-142.21;100.00
5053;BME280;2545;50.892;5.740;2024-03-25T02:33:06;56321.91;;;-142.21;100.00
5053;BME280;2545;50.892;5.740;2024-03-25T02:35:31;56321.91;;;-142.21;100.00
5053;BME280;2545;50.892;5.740;2024-03-25T02:37:56;56347.41;;;-142.21;100.00
5053;BME280;2545;50.892;5.740;2024-03-25T02:40:22;56321.91;;;-142.21;100.00
5053;BME280;2545;50.892;5.740;2024-03-25T02:42:48;56365.06;;;-142.21;100.00
5053;BME280;2545;50.892;5.740;2024-03-25T02:45:14;56323.88;;;-142.21;100.00
5053;BME280;2545;50.892;5.740;2024-03-25T02:47:41;56367.00;;;-142.21;100.00
5053;BME280;2545;50.892;5.740;2024-03-25T02:50:07;56331.72;;;-142.21;100.00
5053;BME280;2545;50.892;5.740;2024-03-25T02:52:32;56325.84;;;-142.21;100.00
5053;BME280;2545;50.892;5.740;2024-03-25T02:54:58;56317.97;;;-142.21;100.00
5053;BME280;2545;50.892;5.740;2024-03-25T02:57:23;56321.91;;;-142.21;100.00
5053;BME280;2545;50.892;5.740;2024-03-25T02:59:50;56302.28;;;-142.21;100.00
5053;BME280;2545;50.892;5.740;2024-03-25T03:02:15;56359.16;;;-142.21;100.00
5053;BME280;2545;50.892;5.740;2024-03-25T03:04:40;56317.97;;;-142.21;100.00
5053;BME280;2545;50.892;5.740;2024-03-25T03:07:06;56325.84;;;-142.21;100.00
5053;BME280;2545;50.892;5.740;2024-03-25T03:09:31;56367.00;;;-142.21;100.00
5053;BME280;2545;50.892;5.740;2024-03-25T03:11:56;56351.31;;;-142.21;100.00
5053;BME280;2545;50.892;5.740;2024-03-25T03:14:22;56316.03;;;-142.21;100.00
5053;BME280;2545;50.892;5.740;2024-03-25T03:16:47;56323.88;;;-142.21;100.00
5053;BME280;2545;50.892;5.740;2024-03-25T03:19:12;56361.13;;;-142.21;100.00
5053;BME280;2545;50.892;5.740;2024-03-25T03:21:38;56319.94;;;-142.21;100.00
5053;BME280;2545;50.892;5.740;2024-03-25T03:24:04;56339.56;;;-142.21;100.00
5053;BME280;2545;50.892;5.740;2024-03-25T03:26:30;56278.78;;;-142.21;100.00
5053;BME280;2545;50.892;5.740;2024-03-25T03:28:59;56323.88;;;-142.21;100.00
5053;BME280;2545;50.892;5.740;2024-03-25T03:31:26;56312.09;;;-142.21;100.00
5053;BME280;2545;50.892;5.740;2024-03-25T03:33:51;56300.34;;;-142.21;100.00
5053;BME280;2545;50.892;5.740;2024-03-25T03:36:22;56323.88;;;-142.21;100.00
5053;BME280;2545;50.892;5.740;2024-03-25T03:38:50;56335.63;;;-142.21;100.00
5053;BME280;2545;50.892;5.740;2024-03-25T03:41:18;56316.03;;;-142.21;100.00
5053;BME280;2545;50.892;5.740;2024-03-25T03:43:45;56306.22;;;-142.21;100.00
5053;BME280;2545;50.892;5.740;2024-03-25T03:46:10;56345.44;;;-142.21;100.00
5053;BME280;2545;50.892;5.740;2024-03-25T03:48:36;56333.69;;;-142.21;100.00
5053;BME280;2545;50.892;5.740;2024-03-25T03:51:05;56357.22;;;-142.21;100.00
5053;BME280;2545;50.892;5.740;2024-03-25T03:53:32;56302.28;;;-142.21;100.00
5053;BME280;2545;50.892;5.740;2024-03-25T03:56:02;56343.47;;;-142.21;100.00
5053;BME280;2545;50.892;5.740;2024-03-25T03:58:31;56331.72;;;-142.21;100.00
5053;BME280;2545;50.892;5.740;2024-03-25T04:00:57;56321.91;;;-142.21;100.00
5053;BME280;2545;50.892;5.740;2024-03-25T04:03:24;56345.44;;;-142.21;100.00
5053;BME280;2545;50.892;5.740;2024-03-25T04:05:49;56327.78;;;-142.21;100.00
5053;BME280;2545;50.892;5.740;2024-03-25T04:08:14;56370.94;;;-142.21;100.00
5053;BME280;2545;50.892;5.740;2024-03-25T04:10:40;56337.59;;;-142.21;100.00
5053;BME280;2545;50.892;5.740;2024-03-25T04:13:07;56312.09;;;-142.21;100.00
5053;BME280;2545;50.892;5.740;2024-03-25T04:15:34;56351.31;;;-142.21;100.00
5053;BME280;2545;50.892;5.740;2024-03-25T04:17:59;56345.44;;;-142.21;100.00
5053;BME280;2545;50.892;5.740;2024-03-25T04:20:26;56351.31;;;-142.21;100.00
5053;BME280;2545;50.892;5.740;2024-03-25T04:22:52;56343.47;;;-142.21;100.00
5053;BME280;2545;50.892;5.740;2024-03-25T04:25:18;56321.91;;;-142.21;100.00
5053;BME280;2545;50.892;5.740;2024-03-25T04:27:44;56325.84;;;-142.21;100.00
5053;BME280;2545;50.892;5.740;2024-03-25T04:30:10;56325.84;;;-142.21;100.00
5053;BME280;2545;50.892;5.740;2024-03-25T04:32:36;56321.91;;;-142.21;100.00
5053;BME280;2545;50.892;5.740;2024-03-25T04:35:03;56339.56;;;-142.21;100.00
5053;BME280;2545;50.892;5.740;2024-03-25T04:37:29;56341.53;;;-142.21;100.00
5053;BME280;2545;50.892;5.740;2024-03-25T04:39:55;56341.53;;;-142.21;100.00
5053;BME280;2545;50.892;5.740;2024-03-25T04:42:23;56319.94;;;-142.21;100.00
5053;BME280;2545;50.892;5.740;2024-03-25T04:44:49;56325.84;;;-142.21;100.00
5053;BME280;2545;50.892;5.740;2024-03-25T04:47:16;56376.81;;;-142.21;100.00
5053;BME280;2545;50.892;5.740;2024-03-25T04:49:41;56347.41;;;-142.21;100.00
5053;BME280;2545;50.892;5.740;2024-03-25T04:52:07;56325.84;;;-142.21;100.00
5053;BME280;2545;50.892;5.740;2024-03-25T04:54:32;56372.91;;;-142.21;100.00
5053;BME280;2545;50.892;5.740;2024-03-25T04:56:58;56331.72;;;-142.21;100.00
5053;BME280;2545;50.892;5.740;2024-03-25T04:59:23;56314.06;;;-142.21;100.00
5053;BME280;2545;50.892;5.740;2024-03-25T05:01:49;56351.31;;;-142.21;100.00
5053;BME280;2545;50.892;5.740;2024-03-25T05:04:14;56365.06;;;-142.21;100.00
5053;BME280;2545;50.892;5.740;2024-03-25T05:06:41;56316.03;;;-142.21;100.00
5053;BME280;2545;50.892;5.740;2024-03-25T05:09:07;56325.84;;;-142.21;100.00
5053;BME280;2545;50.892;5.740;2024-03-25T05:11:33;56329.75;;;-142.21;100.00
5053;BME280;2545;50.892;5.740;2024-03-25T05:13:59;56365.06;;;-142.21;100.00
5053;BME280;2545;50.892;5.740;2024-03-25T05:16:24;56339.56;;;-142.21;100.00
5053;BME280;2545;50.892;5.740;2024-03-25T05:18:49;56310.13;;;-142.21;100.00
5053;BME280;2545;50.892;5.740;2024-03-25T05:21:15;56367.00;;;-142.21;100.00
5053;BME280;2545;50.892;5.740;2024-03-25T05:23:40;56319.94;;;-142.21;100.00
5053;BME280;2545;50.892;5.740;2024-03-25T05:26:05;56329.75;;;-142.21;100.00
5053;BME280;2545;50.892;5.740;2024-03-25T05:28:30;56319.94;;;-142.21;100.00
5053;BME280;2545;50.892;5.740;2024-03-25T05:30:56;56308.19;;;-142.21;100.00
5053;BME280;2545;50.892;5.740;2024-03-25T05:33:21;56288.56;;;-142.21;100.00
5053;BME280;2545;50.892;5.740;2024-03-25T05:35:46;56382.69;;;-142.21;100.00
5053;BME280;2545;50.892;5.740;2024-03-25T05:38:12;56327.78;;;-142.21;100.00
5053;BME280;2545;50.892;5.740;2024-03-25T05:40:37;56345.44;;;-142.21;100.00
5053;BME280;2545;50.892;5.740;2024-03-25T05:43:03;56327.78;;;-142.21;100.00
5053;BME280;2545;50.892;5.740;2024-03-25T05:45:28;56372.91;;;-142.21;100.00
5053;BME280;2545;50.892;5.740;2024-03-25T05:47:55;56341.53;;;-142.21;100.00
5053;BME280;2545;50.892;5.740;2024-03-25T05:50:20;56308.19;;;-142.21;100.00
5053;BME280;2545;50.892;5.740;2024-03-25T05:52:46;56347.41;;;-142.21;100.00
5053;BME280;2545;50.892;5.740;2024-03-25T05:55:11;56372.91;;;-142.21;100.00
5053;BME280;2545;50.892;5.740;2024-03-25T05:57:38;56331.72;;;-142.21;100.00
5053;BME280;2545;50.892;5.740;2024-03-25T06:00:03;56331.72;;;-142.21;100.00
5053;BME280;2545;50.892;5.740;2024-03-25T06:02:29;56388.59;;;-142.21;100.00
5053;BME280;2545;50.892;5.740;2024-03-25T06:04:55;56343.47;;;-142.21;100.00
5053;BME280;2545;50.892;5.740;2024-03-25T06:07:21;56308.19;;;-142.21;100.00
5053;BME280;2545;50.892;5.740;2024-03-25T06:09:47;56390.53;;;-142.21;100.00
5053;BME280;2545;50.892;5.740;2024-03-25T06:12:12;56378.78;;;-142.21;100.00
5053;BME280;2545;50.892;5.740;2024-03-25T06:14:38;56359.16;;;-142.21;100.00
5053;BME280;2545;50.892;5.740;2024-03-25T06:17:04;56363.09;;;-142.21;100.00
5053;BME280;2545;50.892;5.740;2024-03-25T06:19:30;56296.41;;;-142.21;100.00
5053;BME280;2545;50.892;5.740;2024-03-25T06:21:55;56321.91;;;-142.21;100.00
5053;BME280;2545;50.892;5.740;2024-03-25T06:24:22;56335.63;;;-142.21;100.00
5053;BME280;2545;50.892;5.740;2024-03-25T06:26:47;56349.38;;;-142.21;100.00
5053;BME280;2545;50.892;5.740;2024-03-25T06:29:13;56365.06;;;-142.21;100.00
5053;BME280;2545;50.892;5.740;2024-03-25T06:31:38;56349.38;;;-142.21;100.00
5053;BME280;2545;50.892;5.740;2024-03-25T06:34:22;56325.84;;;-142.21;100.00
5053;BME280;2545;50.892;5.740;2024-03-25T06:36:49;56329.75;;;-142.21;100.00
5053;BME280;2545;50.892;5.740;2024-03-25T06:39:15;56396.44;;;-142.21;100.00
5053;BME280;2545;50.892;5.740;2024-03-25T06:41:40;56394.47;;;-142.21;100.00
5053;BME280;2545;50.892;5.740;2024-03-25T06:44:06;56384.66;;;-142.21;100.00
5053;BME280;2545;50.892;5.740;2024-03-25T06:46:32;56327.78;;;-142.21;100.00
5053;BME280;2545;50.892;5.740;2024-03-25T06:48:57;56370.94;;;-142.21;100.00
5053;BME280;2545;50.892;5.740;2024-03-25T06:51:23;56386.63;;;-142.21;100.00
5053;BME280;2545;50.892;5.740;2024-03-25T06:53:48;56341.53;;;-142.21;100.00
5053;BME280;2545;50.892;5.740;2024-03-25T06:56:14;56351.31;;;-142.21;100.00
5053;BME280;2545;50.892;5.740;2024-03-25T06:58:40;56357.22;;;-142.21;100.00
5053;BME280;2545;50.892;5.740;2024-03-25T07:01:07;56368.97;;;-142.21;100.00
5053;BME280;2545;50.892;5.740;2024-03-25T07:03:33;56376.81;;;-142.21;100.00
5053;BME280;2545;50.892;5.740;2024-03-25T07:05:59;56325.84;;;-142.21;100.00
5053;BME280;2545;50.892;5.740;2024-03-25T07:08:26;56335.63;;;-142.21;100.00
5053;BME280;2545;50.892;5.740;2024-03-25T07:10:52;56341.53;;;-142.21;100.00
5053;BME280;2545;50.892;5.740;2024-03-25T07:13:18;56321.91;;;-142.21;100.00
5053;BME280;2545;50.892;5.740;2024-03-25T07:15:44;56359.16;;;-142.21;100.00
5053;BME280;2545;50.892;5.740;2024-03-25T07:18:09;56370.94;;;-142.21;100.00
5053;BME280;2545;50.892;5.740;2024-03-25T07:20:41;56339.56;;;-142.21;100.00
5053;BME280;2545;50.892;5.740;2024-03-25T07:23:07;56341.53;;;-142.21;100.00
5053;BME280;2545;50.892;5.740;2024-03-25T07:25:33;56359.16;;;-142.21;100.00
5053;BME280;2545;50.892;5.740;2024-03-25T07:27:59;56343.47;;;-142.21;100.00
5053;BME280;2545;50.892;5.740;2024-03-25T07:30:27;56314.06;;;-142.21;100.00
5053;BME280;2545;50.892;5.740;2024-03-25T07:32:56;56355.25;;;-142.21;100.00
5053;BME280;2545;50.892;5.740;2024-03-25T07:35:22;56327.78;;;-142.21;100.00
5053;BME280;2545;50.892;5.740;2024-03-25T07:37:48;56304.25;;;-142.21;98.58
5053;BME280;2545;50.892;5.740;2024-03-25T07:40:20;56359.16;;;-142.21;97.81
5053;BME280;2545;50.892;5.740;2024-03-25T07:42:46;56341.53;;;-142.21;96.81
5053;BME280;2545;50.892;5.740;2024-03-25T07:45:11;56359.16;;;-142.21;95.36
5053;BME280;2545;50.892;5.740;2024-03-25T07:47:37;56343.47;;;-142.21;94.35
5053;BME280;2545;50.892;5.740;2024-03-25T07:50:03;56345.44;;;-142.21;93.32
5053;BME280;2545;50.892;5.740;2024-03-25T07:52:28;56312.09;;;-142.21;92.75
5053;BME280;2545;50.892;5.740;2024-03-25T07:54:54;56337.59;;;-142.21;92.47
5053;BME280;2545;50.892;5.740;2024-03-25T07:57:19;56341.53;;;-142.21;92.25
5053;BME280;2545;50.892;5.740;2024-03-25T07:59:45;56317.97;;;-142.21;91.91
5053;BME280;2545;50.892;5.740;2024-03-25T08:02:11;56317.97;;;-142.21;91.58
5053;BME280;2545;50.892;5.740;2024-03-25T08:04:36;56343.47;;;-142.21;90.01
5053;BME280;2545;50.892;5.740;2024-03-25T08:07:01;56302.28;;;-142.21;90.01
5053;BME280;2545;50.892;5.740;2024-03-25T08:09:28;56335.63;;;-142.21;88.91
5053;BME280;2545;50.892;5.740;2024-03-25T08:11:54;56323.88;;;-142.21;88.27
5053;BME280;2545;50.892;5.740;2024-03-25T08:14:20;56341.53;;;-142.21;87.72
5053;BME280;2545;50.892;5.740;2024-03-25T08:16:51;56357.22;;;-142.21;87.25
5053;BME280;2545;50.892;5.740;2024-03-25T08:19:17;56339.56;;;-142.21;86.94
5053;BME280;2545;50.892;5.740;2024-03-25T08:21:43;56353.28;;;-142.21;86.08
5053;BME280;2545;50.892;5.740;2024-03-25T08:24:09;56306.22;;;-142.21;85.39
5053;BME280;2545;50.892;5.740;2024-03-25T08:26:34;56339.56;;;-142.21;84.00
5053;BME280;2545;50.892;5.740;2024-03-25T08:28:59;56319.94;;;-142.21;83.71
5053;BME280;2545;50.892;5.740;2024-03-25T08:31:26;56337.59;;;-142.21;82.75
5053;BME280;2545;50.892;5.740;2024-03-25T08:33:52;56339.56;;;-142.21;81.86
5053;BME280;2545;50.892;5.740;2024-03-25T08:36:17;56319.94;;;-142.21;81.62
5053;BME280;2545;50.892;5.740;2024-03-25T08:38:43;56325.84;;;-142.21;81.92
5053;BME280;2545;50.892;5.740;2024-03-25T08:41:09;56343.47;;;-142.21;80.48
5053;BME280;2545;50.892;5.740;2024-03-25T08:43:34;56333.69;;;-142.21;80.69
5053;BME280;2545;50.892;5.740;2024-03-25T08:46:00;56339.56;;;-142.21;80.47
5053;BME280;2545;50.892;5.740;2024-03-25T08:48:25;56370.94;;;-142.21;79.87
5053;BME280;2545;50.892;5.740;2024-03-25T08:50:51;56351.31;;;-142.21;79.82
5053;BME280;2545;50.892;5.740;2024-03-25T08:53:17;56351.31;;;-142.21;79.18
5053;BME280;2545;50.892;5.740;2024-03-25T08:55:46;56312.09;;;-142.21;78.25
5053;BME280;2545;50.892;5.740;2024-03-25T08:58:12;56349.38;;;-142.21;78.35
5053;BME280;2545;50.892;5.740;2024-03-25T09:00:39;56343.47;;;-142.21;78.68
5053;BME280;2545;50.892;5.740;2024-03-25T09:03:05;56329.75;;;-142.21;77.54
5053;BME280;2545;50.892;5.740;2024-03-25T09:05:32;56319.94;;;-142.21;76.93
5053;BME280;2545;50.892;5.740;2024-03-25T09:07:58;56343.47;;;-142.21;76.26
5053;BME280;2545;50.892;5.740;2024-03-25T09:10:25;56327.78;;;-142.21;76.58
5053;BME280;2545;50.892;5.740;2024-03-25T09:13:10;56310.13;;;-142.21;75.08
5053;BME280;2545;50.892;5.740;2024-03-25T09:15:35;56343.47;;;-142.21;74.37
5053;BME280;2545;50.892;5.740;2024-03-25T09:18:02;56312.09;;;-142.21;74.11
5053;BME280;2545;50.892;5.740;2024-03-25T09:20:27;56290.53;;;-142.21;74.15
5053;BME280;2545;50.892;5.740;2024-03-25T09:22:54;56304.25;;;-142.21;74.13
5053;BME280;2545;50.892;5.740;2024-03-25T09:25:20;56314.06;;;-142.21;73.95
5053;BME280;2545;50.892;5.740;2024-03-25T09:27:46;56325.84;;;-142.21;73.13
5053;BME280;2545;50.892;5.740;2024-03-25T09:30:12;56349.38;;;-142.21;71.96
5053;BME280;2545;50.892;5.740;2024-03-25T09:32:40;56317.97;;;-142.21;70.73
5053;BME280;2545;50.892;5.740;2024-03-25T09:35:07;56327.78;;;-142.21;70.65
5053;BME280;2545;50.892;5.740;2024-03-25T09:37:32;56308.19;;;-142.21;71.66
5053;BME280;2545;50.892;5.740;2024-03-25T09:40:00;56325.84;;;-142.21;71.04
5053;BME280;2545;50.892;5.740;2024-03-25T09:42:27;56357.22;;;-142.21;69.36
5053;BME280;2545;50.892;5.740;2024-03-25T09:44:56;56319.94;;;-142.21;70.07
5053;BME280;2545;50.892;5.740;2024-03-25T09:47:22;56306.22;;;-142.21;69.52
5053;BME280;2545;50.892;5.740;2024-03-25T09:49:48;56308.19;;;-142.21;68.74
5053;BME280;2545;50.892;5.740;2024-03-25T09:52:14;56335.63;;;-142.21;67.18
5053;BME280;2545;50.892;5.740;2024-03-25T09:54:40;56316.03;;;-142.21;67.63
5053;BME280;2545;50.892;5.740;2024-03-25T09:57:06;56316.03;;;-142.21;66.05
5053;BME280;2545;50.892;5.740;2024-03-25T09:59:32;56331.72;;;-142.21;62.58
5053;BME280;2545;50.892;5.740;2024-03-25T10:01:58;56310.13;;;-142.21;57.54
5053;BME280;2545;50.892;5.740;2024-03-25T10:04:24;56257.19;;;-142.21;56.95
5053;BME280;2545;50.892;5.740;2024-03-25T10:06:50;56310.13;;;-142.21;54.38
5053;BME280;2545;50.892;5.740;2024-03-25T10:09:19;56306.22;;;-142.21;49.64
5053;BME280;2545;50.892;5.740;2024-03-25T10:11:49;56253.28;;;-142.21;50.74
5053;BME280;2545;50.892;5.740;2024-03-25T10:14:18;56292.50;;;-142.21;52.41
5053;BME280;2545;50.892;5.740;2024-03-25T10:16:48;56294.47;;;-142.21;48.13
5053;BME280;2545;50.892;5.740;2024-03-25T10:19:14;56233.66;;;-142.21;47.76
5053;BME280;2545;50.892;5.740;2024-03-25T10:21:40;56263.06;;;-142.21;46.34
5053;BME280;2545;50.892;5.740;2024-03-25T10:24:05;56257.19;;;-142.21;44.32
5053;BME280;2545;50.892;5.740;2024-03-25T10:26:32;56227.78;;;-142.21;42.36
5053;BME280;2545;50.892;5.740;2024-03-25T10:29:07;56296.41;;;-142.21;41.69
5053;BME280;2545;50.892;5.740;2024-03-25T10:31:33;56257.19;;;-142.21;41.08
5053;BME280;2545;50.892;5.740;2024-03-25T10:34:00;56268.97;;;-142.21;41.17
5053;BME280;2545;50.892;5.740;2024-03-25T10:36:27;56282.69;;;-142.21;39.39
5053;BME280;2545;50.892;5.740;2024-03-25T10:38:57;56274.84;;;-142.21;39.58
5053;BME280;2545;50.892;5.740;2024-03-25T10:41:23;56235.63;;;-142.21;39.23
5053;BME280;2545;50.892;5.740;2024-03-25T10:43:51;56261.13;;;-142.21;37.19
5053;BME280;2545;50.892;5.740;2024-03-25T10:46:19;56216.00;;;-142.21;37.92
5053;BME280;2545;50.892;5.740;2024-03-25T10:48:56;56255.22;;;-142.21;37.80
5053;BME280;2545;50.892;5.740;2024-03-25T10:51:26;56235.63;;;-142.21;35.70
5053;BME280;2545;50.892;5.740;2024-03-25T10:53:52;56217.97;;;-142.21;36.54
5053;BME280;2545;50.892;5.740;2024-03-25T10:56:22;56167.00;;;-142.21;35.25
5053;BME280;2545;50.892;5.740;2024-03-25T10:58:50;56202.28;;;-142.21;35.76
5053;BME280;2545;50.892;5.740;2024-03-25T11:01:18;56265.03;;;-142.21;36.05
5053;BME280;2545;50.892;5.740;2024-03-25T11:03:45;56186.59;;;-142.21;37.56
5053;BME280;2545;50.892;5.740;2024-03-25T11:06:11;56243.47;;;-142.21;34.70
5053;BME280;2545;50.892;5.740;2024-03-25T11:08:37;56196.41;;;-142.21;33.15
5053;BME280;2545;50.892;5.740;2024-03-25T11:11:05;56176.78;;;-142.21;31.32
5053;BME280;2545;50.892;5.740;2024-03-25T11:13:31;56210.13;;;-142.21;30.56
5053;BME280;2545;50.892;5.740;2024-03-25T11:15:56;56241.50;;;-142.21;30.55
5053;BME280;2545;50.892;5.740;2024-03-25T11:18:24;56168.97;;;-142.21;30.06
5053;BME280;2545;50.892;5.740;2024-03-25T11:21:06;56180.72;;;-142.21;30.78
5053;BME280;2545;50.892;5.740;2024-03-25T11:23:46;56168.97;;;-142.21;28.72
5053;BME280;2545;50.892;5.740;2024-03-25T11:26:24;56153.28;;;-142.21;28.63
5053;BME280;2545;50.892;5.740;2024-03-25T11:28:50;56182.69;;;-142.21;30.86
5053;BME280;2545;50.892;5.740;2024-03-25T11:31:16;56196.41;;;-142.21;31.52
5053;BME280;2545;50.892;5.740;2024-03-25T11:33:43;56196.41;;;-142.21;31.37
5053;BME280;2545;50.892;5.740;2024-03-25T11:36:09;56172.88;;;-142.21;31.51
5053;BME280;2545;50.892;5.740;2024-03-25T11:38:34;56125.81;;;-142.21;29.26
5053;BME280;2545;50.892;5.740;2024-03-25T11:41:00;56121.91;;;-142.21;29.03
5053;BME280;2545;50.892;5.740;2024-03-25T11:43:25;56137.59;;;-142.21;27.48
5053;BME280;2545;50.892;5.740;2024-03-25T11:45:51;56159.16;;;-142.21;27.96
5053;BME280;2545;50.892;5.740;2024-03-25T11:48:18;56163.06;;;-142.21;29.10
5053;BME280;2545;50.892;5.740;2024-03-25T11:50:47;56147.38;;;-142.21;29.06
5053;BME280;2545;50.892;5.740;2024-03-25T11:53:15;56145.44;;;-142.21;28.79
5053;BME280;2545;50.892;5.740;2024-03-25T11:55:41;56153.28;;;-142.21;28.37
5053;BME280;2545;50.892;5.740;2024-03-25T11:58:11;56159.16;;;-142.21;29.77
5053;BME280;2545;50.892;5.740;2024-03-25T12:00:43;56163.06;;;-142.21;30.10
5053;BME280;2545;50.892;5.740;2024-03-25T12:03:09;56186.59;;;-142.21;31.83
5053;BME280;2545;50.892;5.740;2024-03-25T12:05:36;56198.38;;;-142.21;31.24
5053;BME280;2545;50.892;5.740;2024-03-25T12:08:02;56188.56;;;-142.21;32.27
5053;BME280;2545;50.892;5.740;2024-03-25T12:10:27;56217.97;;;-142.21;33.04
5053;BME280;2545;50.892;5.740;2024-03-25T12:13:11;56227.78;;;-142.21;32.51
5053;BME280;2545;50.892;5.740;2024-03-25T12:15:36;56145.44;;;-142.21;29.47
5053;BME280;2545;50.892;5.740;2024-03-25T12:18:02;56182.69;;;-142.21;28.79
5053;BME280;2545;50.892;5.740;2024-03-25T12:20:27;56145.44;;;-142.21;27.54
5053;BME280;2545;50.892;5.740;2024-03-25T12:22:53;56139.53;;;-142.21;28.51
5053;BME280;2545;50.892;5.740;2024-03-25T12:25:19;56112.09;;;-142.21;27.10
5053;BME280;2545;50.892;5.740;2024-03-25T12:27:46;56112.09;;;-142.21;27.58
5053;BME280;2545;50.892;5.740;2024-03-25T12:30:13;56094.44;;;-142.21;26.91
5053;BME280;2545;50.892;5.740;2024-03-25T12:32:40;56029.72;;;-142.21;26.83
5053;BME280;2545;50.892;5.740;2024-03-25T12:35:11;56041.50;;;-142.21;26.39
5053;BME280;2545;50.892;5.740;2024-03-25T12:37:41;56068.94;;;-142.21;25.07
5053;BME280;2545;50.892;5.740;2024-03-25T12:40:28;56006.22;;;-142.21;25.39
5053;BME280;2545;50.892;5.740;2024-03-25T12:42:56;56072.88;;;-142.21;23.97
5053;BME280;2545;50.892;5.740;2024-03-25T12:45:22;56147.38;;;-142.21;27.45
5053;BME280;2545;50.892;5.740;2024-03-25T12:47:50;56174.84;;;-142.21;28.20
5053;BME280;2545;50.892;5.740;2024-03-25T12:50:15;56137.59;;;-142.21;27.08
5053;BME280;2545;50.892;5.740;2024-03-25T12:52:42;56106.22;;;-142.21;26.88